• Join FlightAware (Why Join?)
  • Login
  • US Flag 
10:45PM EDT


 

Airport Tracker/Info


-or-


 

Live Flight TrackerFlight Track Log ✈ N830QS ✈ 19-Jan-2014 ✈ KMKE - KSAV

Flight Track Log - Related Links

Times and Time Zones

All times are in EST time to prevent confusion due to time zone crossing. See the N830QS flight status page for this flight to view local times or setup timezone preferences in your user account.

Time Position Orientation Groundspeed Altitude Reporting Facility
EST Latitude Longitude Course Direction KTS MPH feet Rate Location/Type
01:26PM 42.9333 -87.9167 236° Southwest 185 213 1,300  Level KMKE
01:27PM 42.9167 -87.9500 236° Southwest 190 219 3,400 2,460 Climbing KMKE
01:27PM 42.8878 -87.9394 165° South 236 272 4,500 1,620 Climbing Chicago Center
01:28PM 42.8175 -87.8911 153° Southeast 278 320 6,100 1,800 Climbing Chicago Center
01:29PM 42.7478 -87.8169 142° Southeast 324 373 8,300 3,120 Climbing Chicago Center
01:30PM 42.6414 -87.8008 174° South 321 369 12,600 3,720 Climbing Chicago Center
01:31PM 42.5483 -87.8000 180° South 333 383 16,000 3,720 Climbing Chicago Center
01:32PM 42.4481 -87.7975 179° South 356 410 20,300 3,660 Climbing Chicago Center
01:33PM 42.3450 -87.7956 179° South 367 422 23,600 2,880 Climbing Chicago Center
01:34PM 42.2328 -87.7939 179° South 381 438 26,300 2,820 Climbing Chicago Center
01:35PM 42.1233 -87.7908 179° South 393 452 29,400 2,700 Climbing Chicago Center
01:37PM 42.0164 -87.7892 179° South 386 444 31,900 2,460 Climbing Chicago Center
01:38PM 41.9097 -87.7844 178° South 385 443 34,600 1,500 Climbing Chicago Center
01:39PM 41.7989 -87.7681 174° South 397 457 35,000 180 Climbing Chicago Center
01:40PM 41.6819 -87.7508 174° South 417 480 35,000  Level Chicago Center
01:41PM 41.5431 -87.7311 174° South 414 476 35,000  Level Chicago Center
01:42PM 41.4269 -87.7153 174° South 415 478 35,000  Level Chicago Center
01:43PM 41.3125 -87.6989 174° South 411 473 35,000 720 Level Chicago Center
01:44PM 41.2019 -87.6453 160° South 434 499 36,500 1,680 Climbing Chicago Center
01:45PM 41.0994 -87.5744 152° Southeast 420 483 38,500 1,800 Climbing Chicago Center
01:46PM 40.9981 -87.5028 152° Southeast 414 476 40,300 1,200 Climbing Chicago Center
01:47PM 40.8983 -87.4331 152° Southeast 407 468 41,000 300 Climbing Chicago Center
01:48PM 40.7944 -87.3625 153° Southeast 418 481 41,000  Level Chicago Center
01:49PM 40.6733 -87.2786 152° Southeast 412 474 41,000  Level Chicago Center
01:50PM 40.5708 -87.2094 153° Southeast 413 475 41,000  Level Chicago Center
01:51PM 40.4681 -87.1383 152° Southeast 418 481 41,000  Level Chicago Center
01:52PM 40.3581 -87.0633 153° Southeast 422 486 41,000  Level Chicago Center
01:53PM 40.2528 -86.9911 152° Southeast 428 493 41,000  Level Chicago Center
01:54PM 40.1464 -86.9192 153° Southeast 431 496 41,000  Level Chicago Center
01:55PM 40.0828 -86.8731 151° Southeast 432 497 41,000  Level Indianapolis Center
01:56PM 39.9531 -86.7878 153° Southeast 436 502 41,000  Level Indianapolis Center
01:57PM 39.8467 -86.7153 152° Southeast 436 502 41,000  Level Indianapolis Center
01:58PM 39.7397 -86.6444 153° Southeast 436 502 41,000  Level Indianapolis Center
01:59PM 39.6347 -86.5736 153° Southeast 434 499 41,000  Level Indianapolis Center
02:00PM 39.5303 -86.5033 153° Southeast 432 497 41,000  Level Indianapolis Center
02:01PM 39.4236 -86.4339 153° Southeast 433 498 41,000  Level Indianapolis Center
02:02PM 39.2978 -86.3511 153° Southeast 429 494 41,000  Level Indianapolis Center
02:03PM 39.1914 -86.2811 153° Southeast 431 496 41,000  Level Indianapolis Center
02:04PM 39.0856 -86.2111 153° Southeast 430 495 41,000  Level Indianapolis Center
02:05PM 38.9792 -86.1414 153° Southeast 431 496 41,000  Level Indianapolis Center
02:06PM 38.8700 -86.0706 153° Southeast 435 501 41,000  Level Indianapolis Center
02:07PM 38.7617 -86.0006 153° Southeast 433 498 41,000  Level Indianapolis Center
02:08PM 38.6531 -85.9297 153° Southeast 434 499 41,000  Level Indianapolis Center
02:09PM 38.5425 -85.8581 153° Southeast 439 505 41,000  Level Indianapolis Center
02:10PM 38.4322 -85.7875 153° Southeast 440 506 41,000  Level Indianapolis Center
02:11PM 38.3011 -85.7039 153° Southeast 436 502 41,000  Level Indianapolis Center
02:12PM 38.1917 -85.6339 153° Southeast 438 504 41,000  Level Indianapolis Center
02:13PM 38.0811 -85.5628 153° Southeast 439 505 41,000  Level Indianapolis Center
02:14PM 37.9778 -85.4772 147° Southeast 442 509 41,000  Level Indianapolis Center
02:15PM 37.8728 -85.3961 149° Southeast 440 506 41,000  Level Indianapolis Center
02:16PM 37.7744 -85.3194 148° Southeast 437 503 41,000  Level Indianapolis Center
02:17PM 37.6533 -85.2225 148° Southeast 441 507 41,000  Level Indianapolis Center
02:18PM 37.5489 -85.1422 149° Southeast 440 506 41,000  Level Indianapolis Center
02:19PM 37.4450 -85.0622 149° Southeast 438 504 41,000  Level Indianapolis Center
02:20PM 37.3400 -84.9814 149° Southeast 441 507 41,000  Level Indianapolis Center
02:21PM 37.2364 -84.8997 148° Southeast 440 506 41,000  Level Indianapolis Center
02:22PM 37.1322 -84.8203 149° Southeast 438 504 41,000  Level Indianapolis Center
02:23PM 37.0297 -84.7411 148° Southeast 436 502 41,000  Level Indianapolis Center
02:24PM 36.9253 -84.6606 148° Southeast 438 504 41,000  Level Indianapolis Center
02:25PM 36.8203 -84.5819 149° Southeast 437 503 41,000  Level Indianapolis Center
02:26PM 36.6983 -84.4881 148° Southeast 442 509 41,000  Level Indianapolis Center
02:27PM 36.5917 -84.4089 149° Southeast 445 512 41,000  Level Indianapolis Center
02:29PM 36.4814 -84.3250 149° Southeast 444 511 41,000  Level Indianapolis Center
02:30PM 36.3739 -84.2447 149° Southeast 446 513 41,000  Level Indianapolis Center
02:31PM 36.2661 -84.1639 149° Southeast 449 517 41,000  Level Indianapolis Center
02:32PM 36.1589 -84.0828 149° Southeast 449 517 41,000  Level Indianapolis Center
02:32PM 36.0686 -84.0181 150° Southeast 448 516 41,000  Level Atlanta Center
02:33PM 35.9622 -83.9386 149° Southeast 448 516 41,000  Level Atlanta Center
02:34PM 35.8536 -83.8569 149° Southeast 448 516 41,000  Level Atlanta Center
02:35PM 35.7514 -83.7725 146° Southeast 448 516 41,000  Level Atlanta Center
02:36PM 35.6469 -83.6886 147° Southeast 448 516 41,000  Level Atlanta Center
02:37PM 35.5422 -83.6047 147° Southeast 454 522 41,000  Level Atlanta Center
02:38PM 35.4375 -83.5186 146° Southeast 454 522 41,000  Level Atlanta Center
02:39PM 35.3372 -83.4381 147° Southeast 454 522 41,000  Level Atlanta Center
02:40PM 35.2303 -83.3547 148° Southeast 454 522 41,000 -240 Level Atlanta Center
02:41PM 35.1233 -83.2667 146° Southeast 454 522 40,600 -1,020 Descending Atlanta Center
02:42PM 35.0183 -83.1842 147° Southeast 461 531 39,000 -1,500 Descending Atlanta Center
02:43PM 34.9239 -83.1092 147° Southeast 456 525 37,600 -1,500 Descending Atlanta Center
02:44PM 34.8147 -83.0192 146° Southeast 468 539 36,100 -1,320 Descending Atlanta Center
02:45PM 34.7033 -82.9347 148° Southeast 468 539 35,000 -600 Descending Atlanta Center
02:46PM 34.5856 -82.8403 147° Southeast 470 541 35,000 -660 Level Atlanta Center
02:47PM 34.4783 -82.7586 148° Southeast 471 542 33,700 -1,560 Descending Atlanta Center
02:48PM 34.3628 -82.6697 148° Southeast 473 544 31,900 -1,800 Descending Atlanta Center
02:49PM 34.2531 -82.5861 148° Southeast 478 550 30,100 -1,800 Descending Atlanta Center
02:50PM 34.1436 -82.4978 146° Southeast 473 544 28,300 -1,560 Descending Atlanta Center
02:51PM 34.0339 -82.4144 148° Southeast 478 550 27,000 -660 Descending Atlanta Center
02:52PM 33.9222 -82.3289 148° Southeast 473 544 27,000 -60 Level Atlanta Center
02:53PM 33.8167 -82.2436 146° Southeast 467 537 26,900 -960 Descending Atlanta Center
02:54PM 33.7047 -82.1611 148° Southeast 467 537 25,100 -1,800 Descending Atlanta Center
02:55PM 33.5911 -82.0936 154° Southeast 462 532 23,400 -1,260 Descending Atlanta Center
02:57PM 33.3906 -81.9672 152° Southeast 447 514 21,600 -1,020 Descending Jacksonville Center
02:58PM 33.2858 -81.9011 152° Southeast 447 514 20,600 -1,020 Descending Jacksonville Center
02:59PM 33.1808 -81.8403 154° Southeast 435 501 19,600 -1,020 Descending Jacksonville Center
03:00PM 33.0803 -81.7769 152° Southeast 424 488 18,600 -960 Descending Jacksonville Center
03:01PM 32.9772 -81.7164 154° Southeast 419 482 17,700 -1,380 Descending Jacksonville Center
03:02PM 32.8764 -81.6533 152° Southeast 413 475 15,900 -1,980 Descending Jacksonville Center
03:03PM 32.7800 -81.5928 152° Southeast 413 475 13,800 -2,160 Descending Jacksonville Center
03:04PM 32.6792 -81.5328 153° Southeast 386 444 11,600 -1,860 Descending Jacksonville Center
03:05PM 32.6094 -81.4672 142° Southeast 323 372 10,100 -1,320 Descending Jacksonville Center
03:06PM 32.5397 -81.3992 141° Southeast 316 364 9,000 -600 Descending Jacksonville Center
03:07PM 32.4700 -81.3339 142° Southeast 316 364 9,000 -1,020 Level Jacksonville Center
03:08PM 32.4108 -81.2783 142° Southeast 316 364 7,000 -1,980 Descending Jacksonville Center
03:09PM 32.3517 -81.2228 142° Southeast 281 323 5,100 -1,980 Descending Jacksonville Center
03:10PM 32.2931 -81.2067 167° South 217 250 3,100 -1,500 Descending Jacksonville Center
03:11PM 32.2431 -81.2050 178° South 196 226 2,200 -840 Descending Jacksonville Center
03:12PM 32.2033 -81.2033 178° South 169 194 1,500 -720 Descending Jacksonville Center
03:14PM 32.1276 -81.2021 North  Level Estimated
03:21PM 32.1276 -81.2021 North  Level Estimated
03:22PM 32.1276 -81.2021 North  Level Estimated
03:23PM 32.1276 -81.2021 North  Level Estimated